Flugplatz Schleswig Airport

Bericht für ETNS

vom 17.07. um 23:20 UTC

Wind 1 kt aus 330°

Sichtweite 100 m

Temperatur 12.0°C

Taupunkt 11.0°C

Luftfeuchtigkeit 94%

Luftdruck 1014 hPa

ETNS 172320Z AUTO 33001KT 0150 // ////// 12/11 Q1014 ///
Keine Prognose (TAF) verfügbar.
Impressum